createdAt,value
2019-04-19T00:01:02.707Z,21.23
2019-04-19T00:03:32.167Z,25.90
2019-04-19T00:06:13.764Z,24.60
2019-04-19T00:08:49.481Z,29.07
2019-04-19T00:11:15.572Z,24.07
2019-04-19T00:13:36.773Z,25.57
2019-04-19T00:16:06.684Z,22.50
2019-04-19T00:18:36.980Z,23.70
2019-04-19T00:21:24.912Z,20.87
2019-04-19T00:23:40.572Z,22.33
2019-04-19T00:26:06.222Z,22.30
2019-04-19T00:28:43.791Z,19.90
2019-04-19T00:31:21.363Z,20.57
2019-04-19T00:33:42.599Z,18.80
2019-04-19T00:36:07.428Z,22.30
2019-04-19T00:38:47.001Z,22.03
2019-04-19T00:41:28.225Z,17.93
2019-04-19T00:44:02.633Z,28.37
2019-04-19T00:46:34.020Z,23.97
2019-04-19T00:49:05.535Z,17.67
2019-04-19T00:51:35.551Z,32.37
2019-04-19T00:53:59.844Z,22.10
2019-04-19T00:56:31.235Z,22.83
2019-04-19T00:58:56.650Z,17.23
2019-04-19T01:01:23.179Z,22.73
2019-04-19T01:03:52.175Z,25.30
2019-04-19T01:06:21.922Z,20.13
2019-04-19T01:08:59.278Z,22.53
2019-04-19T01:11:32.919Z,17.13
2019-04-19T01:14:06.157Z,19.43
2019-04-19T01:16:31.245Z,23.90
2019-04-19T01:18:58.936Z,23.33
2019-04-19T01:21:21.900Z,20.47
2019-04-19T01:23:53.999Z,23.37
2019-04-19T01:26:21.523Z,21.07
2019-04-19T01:28:56.051Z,31.43
2019-04-19T01:31:25.534Z,27.40
2019-04-19T01:33:50.786Z,21.10
2019-04-19T01:36:28.879Z,30.70
2019-04-19T01:38:58.019Z,25.93
2019-04-19T01:41:33.597Z,25.70
2019-04-19T01:44:06.631Z,22.43
2019-04-19T01:46:56.313Z,23.83
2019-04-19T01:49:29.902Z,28.40
2019-04-19T01:52:13.447Z,24.90
2019-04-19T01:54:38.398Z,28.87
2019-04-19T01:56:58.217Z,31.00
2019-04-19T01:59:24.830Z,30.00
2019-04-19T02:02:00.462Z,27.93
2019-04-19T02:04:26.907Z,27.93
2019-04-19T02:06:54.789Z,26.63
2019-04-19T02:09:32.706Z,25.43
2019-04-19T02:12:13.297Z,29.00
2019-04-19T02:14:37.592Z,25.27
2019-04-19T02:17:02.550Z,24.80
2019-04-19T02:19:29.729Z,32.43
2019-04-19T02:22:02.100Z,24.03
2019-04-19T02:24:35.183Z,24.80
2019-04-19T02:27:03.397Z,35.00
2019-04-19T02:29:31.674Z,22.83
2019-04-19T02:47:38.384Z,36.63
2019-04-19T02:49:58.057Z,27.33
2019-04-19T02:52:33.271Z,38.53
2019-04-19T03:02:53.288Z,22.60
2019-04-19T03:05:23.014Z,26.93
2019-04-19T03:07:26.607Z,21.90
2019-04-19T03:09:55.677Z,27.87
2019-04-19T03:12:47.196Z,26.60
2019-04-19T03:15:09.806Z,27.23
2019-04-19T03:17:44.529Z,27.03
2019-04-19T03:20:15.245Z,25.50
2019-04-19T03:22:39.452Z,22.40
2019-04-19T03:25:15.208Z,32.00
2019-04-19T03:27:40.723Z,26.20
2019-04-19T03:30:14.352Z,31.60
2019-04-19T03:35:21.945Z,20.27
2019-04-19T03:37:50.002Z,27.23
2019-04-19T03:42:49.326Z,27.10
2019-04-19T03:45:19.082Z,27.63
2019-04-19T03:47:54.806Z,39.07
2019-04-19T03:50:20.014Z,28.57
2019-04-19T03:52:49.084Z,30.93
2019-04-19T03:55:20.302Z,23.33
2019-04-19T03:57:42.456Z,27.40
2019-04-19T04:00:02.871Z,26.20
2019-04-19T04:02:36.901Z,21.20
2019-04-19T04:05:05.992Z,20.63
2019-04-19T04:07:33.642Z,32.73
2019-04-19T04:10:04.965Z,23.73
2019-04-19T04:12:47.389Z,21.40
2019-04-19T04:15:19.703Z,19.83
2019-04-19T04:17:39.545Z,31.60
2019-04-19T04:20:09.395Z,28.23
2019-04-19T04:22:41.749Z,26.73
2019-04-19T04:25:16.382Z,29.27
2019-04-19T04:27:51.396Z,23.80
2019-04-19T04:30:17.512Z,27.60
2019-04-19T04:32:52.826Z,19.47
2019-04-19T04:35:24.302Z,29.50
2019-04-19T04:37:51.450Z,24.57
2019-04-19T04:40:10.949Z,27.87
2019-04-19T04:42:47.566Z,25.90
2019-04-19T04:45:27.930Z,41.00
2019-04-19T04:48:10.035Z,25.93
2019-04-19T04:51:01.771Z,19.23
2019-04-19T04:53:24.324Z,28.53
2019-04-19T04:55:58.154Z,25.23
2019-04-19T04:58:30.378Z,25.80
2019-04-19T05:01:01.472Z,19.27
2019-04-19T05:03:45.569Z,20.50
2019-04-19T05:06:20.012Z,18.93
2019-04-19T05:08:47.433Z,34.53
2019-04-19T05:11:16.569Z,23.83
2019-04-19T05:13:47.036Z,35.23
2019-04-19T05:16:25.195Z,25.73
2019-04-19T05:18:48.386Z,25.93
2019-04-19T05:21:19.150Z,18.80
2019-04-19T05:23:47.718Z,25.97
2019-04-19T05:26:29.207Z,27.03
2019-04-19T05:28:43.964Z,25.00
2019-04-19T05:31:03.326Z,15.67
2019-04-19T05:33:45.290Z,20.17
2019-04-19T05:36:18.202Z,24.07
2019-04-19T05:39:08.060Z,27.77
2019-04-19T05:41:29.963Z,26.43
2019-04-19T05:44:30.394Z,19.07
2019-04-19T05:46:54.560Z,18.27
2019-04-19T05:49:21.923Z,22.00
2019-04-19T05:52:06.191Z,43.00
2019-04-19T05:54:11.556Z,25.27
2019-04-19T05:56:46.006Z,37.67
2019-04-19T05:59:14.704Z,22.63
2019-04-19T06:01:57.881Z,27.67
2019-04-19T06:04:29.022Z,25.03
2019-04-19T06:06:56.603Z,31.03
2019-04-19T06:09:09.435Z,18.67
2019-04-19T06:11:41.278Z,20.13
2019-04-19T06:14:32.234Z,27.07
2019-04-19T06:16:55.126Z,26.20
2019-04-19T06:19:28.985Z,29.73
2019-04-19T06:21:53.143Z,30.30
2019-04-19T06:24:33.956Z,21.37
2019-04-19T06:27:13.311Z,21.47
2019-04-19T06:29:38.493Z,24.63
2019-04-19T06:32:07.431Z,26.03
2019-04-19T06:34:31.426Z,20.63
2019-04-19T06:36:55.008Z,21.23
2019-04-19T06:39:14.171Z,26.20
2019-04-19T06:41:50.314Z,25.50
2019-04-19T06:44:33.564Z,31.20
2019-04-19T06:46:58.484Z,19.30
2019-04-19T06:49:21.192Z,32.73
2019-04-19T06:51:52.607Z,30.40
2019-04-19T06:54:15.503Z,24.33
2019-04-19T06:56:53.717Z,18.27
2019-04-19T06:59:24.919Z,20.47
2019-04-19T07:01:49.708Z,24.73
2019-04-19T07:04:14.925Z,16.50
2019-04-19T07:07:07.934Z,18.23
2019-04-19T07:09:48.617Z,14.03
2019-04-19T07:12:06.724Z,19.10
2019-04-19T07:14:21.380Z,18.40
2019-04-19T07:17:07.305Z,17.43
2019-04-19T07:19:35.085Z,18.73
2019-04-19T07:22:05.161Z,18.00
2019-04-19T07:24:40.447Z,14.67
2019-04-19T07:27:05.938Z,12.50
2019-04-19T07:29:18.801Z,13.83
2019-04-19T07:31:47.431Z,16.63
2019-04-19T07:34:35.048Z,15.50
2019-04-19T07:37:04.947Z,20.40
2019-04-19T07:39:43.265Z,19.20
2019-04-19T07:42:15.728Z,11.80
2019-04-19T07:44:28.587Z,21.67
2019-04-19T07:47:16.308Z,17.50
2019-04-19T07:49:41.567Z,16.57
2019-04-19T07:52:14.023Z,18.17
2019-04-19T07:54:35.590Z,16.73
2019-04-19T07:57:37.313Z,12.50
2019-04-19T08:00:00.633Z,34.57
2019-04-19T08:02:36.024Z,26.13
2019-04-19T08:07:41.407Z,18.60
2019-04-19T08:12:31.674Z,19.73
2019-04-19T08:29:48.559Z,21.07
2019-04-19T08:32:09.378Z,17.43
2019-04-19T08:34:39.480Z,19.37
2019-04-19T08:37:18.383Z,13.80
2019-04-19T08:39:56.770Z,15.93
2019-04-19T08:42:32.023Z,12.20
2019-04-19T08:44:49.317Z,16.13
2019-04-19T08:47:35.588Z,15.33
2019-04-19T08:50:05.743Z,16.27
2019-04-19T08:52:35.488Z,18.63
2019-04-19T08:55:26.315Z,19.00
2019-04-19T08:57:34.752Z,23.80
2019-04-19T09:00:37.182Z,23.00
2019-04-19T09:02:50.356Z,16.40
2019-04-19T09:05:22.261Z,21.27
2019-04-19T09:07:59.721Z,19.43
2019-04-19T09:10:41.516Z,20.23
2019-04-19T09:13:06.792Z,17.40
2019-04-19T09:15:24.080Z,23.10
2019-04-19T09:20:34.081Z,14.93
2019-04-19T09:23:05.029Z,23.03
2019-04-19T09:25:42.042Z,17.13
2019-04-19T09:28:31.275Z,16.77
2019-04-19T09:30:49.150Z,21.83
2019-04-19T09:33:09.795Z,22.27
2019-04-19T09:35:38.607Z,14.97
2019-04-19T09:38:14.963Z,13.53
2019-04-19T09:40:44.532Z,17.90
2019-04-19T09:43:19.759Z,19.90
2019-04-19T09:45:36.265Z,22.93
2019-04-19T09:48:05.445Z,15.97
2019-04-19T09:50:52.358Z,16.03
2019-04-19T09:53:31.671Z,13.73
2019-04-19T09:55:55.500Z,15.70
2019-04-19T09:58:26.407Z,17.57
2019-04-19T10:00:36.776Z,13.97
2019-04-19T10:03:20.453Z,15.00
2019-04-19T10:05:36.849Z,15.13
2019-04-19T10:08:05.998Z,17.07
2019-04-19T10:10:34.766Z,14.17
2019-04-19T10:13:03.584Z,14.13
2019-04-19T10:15:36.434Z,10.50
2019-04-19T10:18:05.063Z,11.30
2019-04-19T10:20:54.639Z,12.80
2019-04-19T10:23:23.414Z,22.57
2019-04-19T10:25:57.866Z,16.90
2019-04-19T10:28:25.287Z,15.27
2019-04-19T10:30:58.960Z,18.43
2019-04-19T10:33:36.900Z,14.80
2019-04-19T10:35:57.780Z,14.53
2019-04-19T10:38:27.469Z,16.77
2019-04-19T10:40:56.130Z,12.20
2019-04-19T10:43:25.284Z,13.33
2019-04-19T10:45:54.205Z,13.10
2019-04-19T10:48:23.070Z,14.23
2019-04-19T10:50:55.051Z,14.77
2019-04-19T10:53:24.126Z,13.73
2019-04-19T10:55:54.402Z,10.60
2019-04-19T10:58:23.243Z,16.33
2019-04-19T11:00:51.972Z,15.50
2019-04-19T11:03:21.053Z,17.20
2019-04-19T11:05:50.400Z,19.13
2019-04-19T11:08:20.366Z,17.50
2019-04-19T11:10:49.613Z,10.63
2019-04-19T11:13:24.503Z,15.40
2019-04-19T11:15:48.682Z,11.93
2019-04-19T11:18:17.434Z,16.33
2019-04-19T11:20:49.628Z,21.33
2019-04-19T11:23:17.572Z,12.27
2019-04-19T11:25:47.694Z,11.90
2019-04-19T11:28:18.835Z,16.90
2019-04-19T11:30:49.153Z,10.03
2019-04-19T11:33:25.606Z,15.80
2019-04-19T11:35:55.476Z,7.77
2019-04-19T11:38:25.039Z,10.30
2019-04-19T11:40:55.266Z,9.23
2019-04-19T11:43:25.151Z,12.33
2019-04-19T11:45:53.957Z,9.60
2019-04-19T11:48:22.785Z,18.57
2019-04-19T11:50:51.878Z,14.53
2019-04-19T11:53:25.027Z,7.10
2019-04-19T11:55:56.212Z,16.03
2019-04-19T11:58:24.805Z,5.33
2019-04-19T12:00:58.489Z,12.73
2019-04-19T12:03:27.944Z,12.43
2019-04-19T12:05:56.669Z,6.87
2019-04-19T12:08:26.616Z,28.80
2019-04-19T12:10:56.587Z,9.17
2019-04-19T12:13:27.441Z,8.10
2019-04-19T12:15:56.843Z,10.67
2019-04-19T12:18:26.343Z,8.57
2019-04-19T12:20:55.454Z,5.47
2019-04-19T12:23:25.446Z,5.70
2019-04-19T12:25:55.506Z,4.43
2019-04-19T12:28:24.270Z,3.27
2019-04-19T12:30:57.055Z,4.27
2019-04-19T12:33:24.425Z,9.33
2019-04-19T12:35:53.080Z,6.63
2019-04-19T12:38:21.955Z,4.70
2019-04-19T12:40:52.415Z,4.77
2019-04-19T12:43:22.185Z,8.93
2019-04-19T12:45:52.519Z,10.13
2019-04-19T12:48:21.754Z,7.70
2019-04-19T12:50:51.478Z,10.70
2019-04-19T12:53:21.030Z,4.60
2019-04-19T12:55:50.188Z,3.30
2019-04-19T12:58:19.969Z,5.80
2019-04-19T13:00:56.291Z,3.97
2019-04-19T13:03:44.441Z,8.83
2019-04-19T13:06:27.376Z,6.37
2019-04-19T13:08:57.167Z,9.13
2019-04-19T13:11:27.245Z,10.83
2019-04-19T13:13:55.983Z,7.10
2019-04-19T13:16:24.645Z,4.63
2019-04-19T13:18:54.222Z,8.40
2019-04-19T13:21:24.143Z,5.70
2019-04-19T13:23:52.869Z,5.50
2019-04-19T13:26:21.459Z,2.80
2019-04-19T13:28:51.257Z,4.40
2019-04-19T13:31:21.069Z,8.37
2019-04-19T13:33:49.591Z,7.23
2019-04-19T13:36:22.188Z,3.93
2019-04-19T13:38:59.307Z,7.27
2019-04-19T13:41:48.792Z,5.83
2019-04-19T13:44:18.691Z,2.60
2019-04-19T13:46:48.585Z,6.20
2019-04-19T13:49:17.347Z,2.77
2019-04-19T13:51:46.135Z,3.33
2019-04-19T13:54:14.763Z,3.60
2019-04-19T13:56:47.276Z,3.60
2019-04-19T13:59:16.043Z,5.03
2019-04-19T14:01:44.566Z,3.00
2019-04-19T14:04:13.556Z,2.57
2019-04-19T14:06:42.380Z,3.00
2019-04-19T14:09:13.432Z,8.20
2019-04-19T14:11:42.847Z,13.10
2019-04-19T14:14:12.085Z,4.80
2019-04-19T14:16:41.896Z,2.83
2019-04-19T14:19:11.759Z,17.67
2019-04-19T14:21:40.824Z,6.60
2019-04-19T14:24:09.446Z,2.83
2019-04-19T14:26:45.072Z,4.40
2019-04-19T14:29:09.502Z,2.70
2019-04-19T14:31:39.938Z,3.80
2019-04-19T14:34:09.018Z,16.03
2019-04-19T14:36:38.073Z,6.07
2019-04-19T14:39:08.905Z,6.20
2019-04-19T14:41:38.021Z,3.03
2019-04-19T14:44:07.226Z,6.63
2019-04-19T14:46:36.697Z,2.50
2019-04-19T14:49:05.367Z,6.10
2019-04-19T14:51:37.036Z,4.73
2019-04-19T14:54:04.736Z,6.97
2019-04-19T14:56:34.057Z,3.00
2019-04-19T14:59:02.683Z,3.00
2019-04-19T15:01:49.350Z,3.13
2019-04-19T15:04:26.659Z,3.20
2019-04-19T15:06:55.653Z,9.57
2019-04-19T15:09:24.174Z,6.70
2019-04-19T15:11:52.750Z,3.47
2019-04-19T15:14:22.128Z,6.53
2019-04-19T15:16:51.988Z,6.20
2019-04-19T15:19:20.904Z,4.40
2019-04-19T15:21:50.082Z,3.13
2019-04-19T15:24:18.811Z,3.60
2019-04-19T15:26:47.461Z,12.97
2019-04-19T15:29:16.763Z,4.23
2019-04-19T15:31:46.216Z,3.60
2019-04-19T15:34:15.632Z,2.40
2019-04-19T15:36:44.246Z,2.67
2019-04-19T15:39:13.677Z,1.70
2019-04-19T15:41:42.275Z,2.90
2019-04-19T15:44:10.830Z,2.57
2019-04-19T15:46:39.732Z,5.90
2019-04-19T15:49:08.316Z,2.90
2019-04-19T15:51:39.709Z,3.13
2019-04-19T15:54:08.111Z,3.33
2019-04-19T15:56:36.708Z,4.10
2019-04-19T15:59:05.393Z,4.80
2019-04-19T16:01:53.873Z,4.17
2019-04-19T16:04:40.154Z,2.13
2019-04-19T16:07:10.379Z,4.87
2019-04-19T16:10:02.995Z,12.77
2019-04-19T16:12:27.254Z,3.53
2019-04-19T16:14:55.774Z,2.87
2019-04-19T16:17:25.145Z,2.97
2019-04-19T16:19:53.773Z,5.33
2019-04-19T16:22:22.503Z,2.90
2019-04-19T16:24:51.499Z,3.10
2019-04-19T16:27:20.850Z,3.03
2019-04-19T16:29:54.581Z,3.70
2019-04-19T16:32:21.082Z,9.70
2019-04-19T16:34:49.755Z,5.63
2019-04-19T16:37:18.670Z,4.50
2019-04-19T16:39:48.257Z,3.87
2019-04-19T16:42:16.852Z,3.30
2019-04-19T16:44:45.748Z,3.33
2019-04-19T16:47:15.261Z,4.50
2019-04-19T16:49:44.795Z,11.97
2019-04-19T16:52:13.445Z,5.50
2019-04-19T16:54:41.892Z,2.93
2019-04-19T16:57:16.833Z,2.90
2019-04-19T16:59:41.726Z,3.10
2019-04-19T17:02:11.053Z,2.53
2019-04-19T17:04:40.880Z,3.33
2019-04-19T17:07:09.520Z,3.20
2019-04-19T17:09:38.403Z,3.37
2019-04-19T17:12:07.549Z,3.43
2019-04-19T17:14:36.856Z,3.13
2019-04-19T17:17:07.217Z,6.23
2019-04-19T17:19:55.060Z,4.60
2019-04-19T17:22:26.713Z,3.30
2019-04-19T17:24:55.283Z,4.30
2019-04-19T17:27:27.688Z,6.10
2019-04-19T17:29:54.473Z,3.70
2019-04-19T17:32:23.991Z,5.43
2019-04-19T17:34:54.184Z,4.17
2019-04-19T17:37:24.201Z,5.80
2019-04-19T17:39:52.985Z,6.37
2019-04-19T17:42:22.328Z,6.10
2019-04-19T17:44:51.580Z,4.17
2019-04-19T17:47:24.397Z,5.37
2019-04-19T17:49:51.264Z,6.33
2019-04-19T17:52:26.340Z,6.70
2019-04-19T17:55:05.081Z,5.13
2019-04-19T17:57:21.002Z,19.43
2019-04-19T17:59:50.309Z,37.27
2019-04-19T18:02:19.106Z,67.67
2019-04-19T18:04:48.207Z,47.90
2019-04-19T18:07:16.728Z,37.33
2019-04-19T18:09:48.505Z,17.43
2019-04-19T18:12:15.512Z,21.93
2019-04-19T18:14:43.989Z,17.80
2019-04-19T18:17:12.606Z,19.00
2019-04-19T18:19:43.560Z,24.60
2019-04-19T18:22:20.103Z,31.07
2019-04-19T18:24:50.012Z,29.07
2019-04-19T18:27:18.076Z,21.33
2019-04-19T18:29:42.238Z,26.43
2019-04-19T18:32:25.873Z,25.00
2019-04-19T18:34:55.896Z,12.40
2019-04-19T18:37:29.602Z,20.10
2019-04-19T18:39:54.645Z,30.17
2019-04-19T18:42:23.945Z,21.00
2019-04-19T18:44:56.463Z,24.33
2019-04-19T18:47:22.916Z,33.40
2019-04-19T18:49:51.880Z,30.33
2019-04-19T18:52:33.510Z,25.90
2019-04-19T18:54:59.587Z,36.13
2019-04-19T18:57:22.240Z,21.23
2019-04-19T18:59:55.986Z,23.10
2019-04-19T19:02:24.989Z,10.23
2019-04-19T19:04:54.062Z,15.63
2019-04-19T19:07:25.128Z,12.23
2019-04-19T19:09:54.809Z,17.77
2019-04-19T19:12:22.457Z,16.13
2019-04-19T19:14:57.129Z,17.70
2019-04-19T19:17:22.337Z,21.20
2019-04-19T19:19:54.708Z,19.00
2019-04-19T19:22:31.343Z,16.10
2019-04-19T19:25:10.252Z,9.00
2019-04-19T19:27:26.882Z,22.27
2019-04-19T19:29:52.773Z,12.07
2019-04-19T19:32:22.488Z,13.60
2019-04-19T19:34:54.630Z,12.50
2019-04-19T19:37:26.757Z,8.67
2019-04-19T19:40:04.204Z,14.73
2019-04-19T19:42:56.223Z,6.30
2019-04-19T19:45:14.014Z,19.33
2019-04-19T19:48:17.546Z,11.53
2019-04-19T19:50:35.936Z,16.23
2019-04-19T19:53:07.538Z,10.73
2019-04-19T19:55:31.256Z,17.10
2019-04-19T19:57:56.070Z,10.50
2019-04-19T20:00:30.842Z,12.90
2019-04-19T20:03:01.543Z,19.77
2019-04-19T20:05:26.446Z,12.10
2019-04-19T20:07:51.755Z,10.20
2019-04-19T20:10:21.161Z,13.53
2019-04-19T20:12:55.710Z,9.23
2019-04-19T20:15:21.591Z,14.40
2019-04-19T20:17:56.334Z,12.50
2019-04-19T20:20:28.267Z,8.43
2019-04-19T20:22:52.458Z,13.57
2019-04-19T20:25:32.549Z,6.47
2019-04-19T20:27:54.975Z,15.33
2019-04-19T20:30:21.795Z,33.33
2019-04-19T20:32:54.511Z,44.27
2019-04-19T20:35:24.387Z,45.93
2019-04-19T20:37:55.513Z,67.90
2019-04-19T20:40:25.800Z,76.37
2019-04-19T20:43:16.254Z,46.87
2019-04-19T20:45:33.874Z,57.00
2019-04-19T20:47:56.400Z,28.50
2019-04-19T20:50:37.380Z,35.97
2019-04-19T20:53:14.667Z,27.77
2019-04-19T20:55:55.408Z,22.77
2019-04-19T20:58:27.746Z,20.63
2019-04-19T21:00:50.491Z,17.47
2019-04-19T21:03:24.963Z,21.00
2019-04-19T21:05:50.901Z,15.40
2019-04-19T21:08:22.799Z,13.37
2019-04-19T21:10:56.883Z,9.63
2019-04-19T21:13:21.315Z,13.70
2019-04-19T21:15:50.086Z,8.03
2019-04-19T21:18:23.513Z,8.40
2019-04-19T21:20:50.462Z,10.67
2019-04-19T21:23:25.512Z,13.23
2019-04-19T21:25:57.061Z,13.83
2019-04-19T21:28:24.159Z,17.23
2019-04-19T21:30:55.805Z,23.30
2019-04-19T21:33:22.531Z,27.13
2019-04-19T21:35:57.239Z,22.40
2019-04-19T21:38:24.776Z,18.57
2019-04-19T21:40:53.110Z,22.57
2019-04-19T21:43:29.592Z,18.70
2019-04-19T21:45:54.836Z,25.30
2019-04-19T21:48:26.855Z,30.40
2019-04-19T21:50:54.139Z,27.20
2019-04-19T21:53:22.858Z,22.10
2019-04-19T21:55:59.765Z,17.93
2019-04-19T21:58:24.620Z,21.80
2019-04-19T22:01:04.685Z,18.63
2019-04-19T22:03:30.723Z,10.13
2019-04-19T22:06:01.909Z,77.50
2019-04-19T22:08:34.269Z,31.63
2019-04-19T22:11:00.532Z,28.33
2019-04-19T22:13:32.019Z,34.40
2019-04-19T22:16:01.940Z,21.00
2019-04-19T22:18:34.431Z,23.13
2019-04-19T22:21:03.196Z,16.07
2019-04-19T22:23:30.877Z,6.77
2019-04-19T22:26:13.050Z,12.07
2019-04-19T22:28:29.982Z,11.07
2019-04-19T22:31:01.122Z,21.13
2019-04-19T22:33:30.247Z,14.70
2019-04-19T22:36:01.552Z,18.00
2019-04-19T22:38:29.650Z,12.43
2019-04-19T22:41:05.517Z,11.63
2019-04-19T22:43:28.888Z,19.97
2019-04-19T22:46:03.222Z,8.00
2019-04-19T22:48:29.321Z,12.37
2019-04-19T22:51:03.776Z,8.47
2019-04-19T22:53:33.723Z,9.90
2019-04-19T22:56:08.082Z,20.60
2019-04-19T22:58:31.693Z,12.90
2019-04-19T23:00:59.143Z,9.77
2019-04-19T23:03:33.639Z,13.67
2019-04-19T23:05:59.586Z,17.30
2019-04-19T23:08:33.058Z,16.53
2019-04-19T23:11:02.718Z,21.83
2019-04-19T23:13:29.488Z,18.63
2019-04-19T23:16:04.004Z,12.50
2019-04-19T23:18:29.392Z,10.43
2019-04-19T23:21:05.446Z,10.60
2019-04-19T23:23:31.708Z,12.03
2019-04-19T23:26:13.110Z,13.40
2019-04-19T23:28:34.029Z,11.10
2019-04-19T23:31:05.424Z,11.43
2019-04-19T23:33:30.264Z,14.30
2019-04-19T23:35:59.639Z,14.00
2019-04-19T23:38:30.793Z,12.43
2019-04-19T23:40:59.306Z,18.53
2019-04-19T23:43:34.203Z,12.00
2019-04-19T23:45:58.343Z,13.20
2019-04-19T23:48:31.501Z,11.00
2019-04-19T23:50:58.084Z,13.70
2019-04-19T23:53:30.768Z,10.97
2019-04-19T23:55:56.810Z,11.97
2019-04-19T23:58:29.425Z,8.70
